createdAt,value
2019-05-22T00:00:17.708Z,99.90
2019-05-22T00:02:47.817Z,99.90
2019-05-22T00:05:31.892Z,99.90
2019-05-22T00:08:02.888Z,99.90
2019-05-22T00:10:34.214Z,99.90
2019-05-22T00:13:05.780Z,99.90
2019-05-22T00:15:38.574Z,99.90
2019-05-22T00:18:10.129Z,99.90
2019-05-22T00:20:40.462Z,99.90
2019-05-22T00:23:10.508Z,99.90
2019-05-22T00:25:40.617Z,99.90
2019-05-22T00:28:10.661Z,99.90
2019-05-22T00:30:41.992Z,99.90
2019-05-22T00:33:14.086Z,99.90
2019-05-22T00:35:45.404Z,99.90
2019-05-22T00:38:16.394Z,99.90
2019-05-22T00:40:47.621Z,99.90
2019-05-22T00:43:20.388Z,99.90
2019-05-22T00:45:52.109Z,99.90
2019-05-22T00:48:25.727Z,99.90
2019-05-22T00:50:59.863Z,99.90
2019-05-22T00:53:43.954Z,99.90
2019-05-22T00:56:14.057Z,99.90
2019-05-22T00:58:44.104Z,99.90
2019-05-22T01:01:23.321Z,99.90
2019-05-22T01:03:53.365Z,99.90
2019-05-22T01:06:23.388Z,99.90
2019-05-22T01:08:53.461Z,99.90
2019-05-22T01:11:25.156Z,99.90
2019-05-22T01:13:55.769Z,99.90
2019-05-22T01:16:25.802Z,99.90
2019-05-22T01:18:54.352Z,99.90
2019-05-22T01:21:24.452Z,99.90
2019-05-22T01:23:55.824Z,99.90
2019-05-22T01:26:26.011Z,99.90
2019-05-22T01:28:56.572Z,99.90
2019-05-22T01:31:33.185Z,99.90
2019-05-22T01:34:05.931Z,99.90
2019-05-22T01:36:37.509Z,99.90
2019-05-22T01:39:19.461Z,99.90
2019-05-22T01:41:51.005Z,99.90
2019-05-22T01:44:21.038Z,99.90
2019-05-22T01:46:52.097Z,99.90
2019-05-22T01:49:22.034Z,99.90
2019-05-22T01:51:51.381Z,99.90
2019-05-22T01:54:21.725Z,99.90
2019-05-22T01:56:51.831Z,99.90
2019-05-22T01:59:23.671Z,99.90
2019-05-22T02:01:54.612Z,99.90
2019-05-22T02:04:24.663Z,99.90
2019-05-22T02:06:55.786Z,99.90
2019-05-22T02:09:30.581Z,99.90
2019-05-22T02:12:06.341Z,99.90
2019-05-22T02:14:34.877Z,99.90
2019-05-22T02:17:04.912Z,99.90
2019-05-22T02:19:35.085Z,99.90
2019-05-22T02:22:06.818Z,99.90
2019-05-22T02:24:36.866Z,99.90
2019-05-22T02:27:07.867Z,99.90
2019-05-22T02:29:37.885Z,99.90
2019-05-22T02:32:07.178Z,99.90
2019-05-22T02:34:35.593Z,99.90
2019-05-22T02:37:07.302Z,99.90
2019-05-22T02:39:38.458Z,99.90
2019-05-22T02:42:14.426Z,99.90
2019-05-22T02:44:46.247Z,99.90
2019-05-22T02:47:20.714Z,99.90
2019-05-22T02:49:48.617Z,99.90
2019-05-22T02:52:17.151Z,99.90
2019-05-22T02:54:47.282Z,99.90
2019-05-22T02:57:18.369Z,99.90
2019-05-22T02:59:46.788Z,99.90
2019-05-22T03:02:17.871Z,99.90
2019-05-22T03:04:56.681Z,99.90
2019-05-22T03:07:26.938Z,99.90
2019-05-22T03:09:57.181Z,99.90
2019-05-22T03:12:29.857Z,99.90
2019-05-22T03:14:58.303Z,99.90
2019-05-22T03:17:31.528Z,99.90
2019-05-22T03:20:04.538Z,99.90
2019-05-22T03:22:40.326Z,99.90
2019-05-22T03:25:14.192Z,99.90
2019-05-22T03:27:49.090Z,99.90
2019-05-22T03:30:31.346Z,99.90
2019-05-22T03:33:06.740Z,99.90
2019-05-22T03:35:46.923Z,99.90
2019-05-22T03:38:20.125Z,99.90
2019-05-22T03:40:51.117Z,99.90
2019-05-22T03:43:27.130Z,99.90
2019-05-22T03:45:58.828Z,99.90
2019-05-22T03:48:30.601Z,99.90
2019-05-22T03:51:10.099Z,99.90
2019-05-22T03:53:40.810Z,99.90
2019-05-22T03:56:10.825Z,99.90
2019-05-22T03:58:39.226Z,99.90
2019-05-22T04:01:08.125Z,99.90
2019-05-22T04:03:36.659Z,99.90
2019-05-22T04:06:06.818Z,99.90
2019-05-22T04:08:35.304Z,99.90
2019-05-22T04:11:05.376Z,99.90
2019-05-22T04:13:35.658Z,99.90
2019-05-22T04:16:06.571Z,99.90
2019-05-22T04:18:35.841Z,99.90
2019-05-22T04:21:05.191Z,99.90
2019-05-22T04:23:34.355Z,99.90
2019-05-22T04:26:06.143Z,99.90
2019-05-22T04:28:39.261Z,99.90
2019-05-22T04:31:07.656Z,99.90
2019-05-22T04:33:36.061Z,99.90
2019-05-22T04:36:10.124Z,99.90
2019-05-22T04:38:40.644Z,99.90
2019-05-22T04:41:12.160Z,99.90
2019-05-22T04:43:43.255Z,99.90
2019-05-22T04:46:14.453Z,99.90
2019-05-22T04:48:46.142Z,99.90
2019-05-22T04:51:25.497Z,99.90
2019-05-22T04:53:56.907Z,99.90
2019-05-22T04:56:28.077Z,99.90
2019-05-22T04:58:59.280Z,99.90
2019-05-22T05:01:27.751Z,99.90
2019-05-22T05:03:57.862Z,99.90
2019-05-22T05:06:28.770Z,99.90
2019-05-22T05:08:57.386Z,99.90
2019-05-22T05:11:26.117Z,99.90
2019-05-22T05:13:55.638Z,99.90
2019-05-22T05:16:24.042Z,99.90
2019-05-22T05:18:52.441Z,99.90
2019-05-22T05:21:20.908Z,99.90
2019-05-22T05:23:49.315Z,99.90
2019-05-22T05:26:17.782Z,99.90
2019-05-22T05:28:46.193Z,99.90
2019-05-22T05:31:15.534Z,99.90
2019-05-22T05:33:50.237Z,99.90
2019-05-22T05:36:20.197Z,99.90
2019-05-22T05:38:48.733Z,99.90
2019-05-22T05:41:17.900Z,99.90
2019-05-22T05:43:47.252Z,99.90
2019-05-22T05:46:17.210Z,99.90
2019-05-22T05:48:48.785Z,99.90
2019-05-22T05:51:20.278Z,99.90
2019-05-22T05:54:10.756Z,99.90
2019-05-22T05:56:43.268Z,99.90
2019-05-22T05:59:13.376Z,99.90
2019-05-22T06:01:48.381Z,99.90
2019-05-22T06:04:34.099Z,99.90
2019-05-22T06:07:00.838Z,99.90
2019-05-22T06:09:29.584Z,99.90
2019-05-22T06:12:05.185Z,99.90
2019-05-22T06:14:36.036Z,99.90
2019-05-22T06:17:39.201Z,99.90
2019-05-22T06:20:12.556Z,99.90
2019-05-22T06:22:43.882Z,99.90
2019-05-22T06:25:14.013Z,99.90
2019-05-22T06:27:44.346Z,99.90
2019-05-22T06:30:22.310Z,99.90
2019-05-22T06:33:10.668Z,99.90
2019-05-22T06:35:40.857Z,99.90
2019-05-22T06:38:39.566Z,99.90
2019-05-22T06:41:10.660Z,99.90
2019-05-22T06:43:44.806Z,99.90
2019-05-22T06:46:16.525Z,99.90
2019-05-22T06:48:46.823Z,99.90
2019-05-22T06:51:19.493Z,99.90
2019-05-22T06:53:45.421Z,99.90
2019-05-22T06:56:13.830Z,99.90
2019-05-22T06:58:43.089Z,99.90
2019-05-22T07:01:11.572Z,99.90
2019-05-22T07:03:40.108Z,99.90
2019-05-22T07:06:08.573Z,99.90
2019-05-22T07:08:38.605Z,99.90
2019-05-22T07:11:10.494Z,99.90
2019-05-22T07:13:38.968Z,99.90
2019-05-22T07:16:09.129Z,99.90
2019-05-22T07:18:37.527Z,99.90
2019-05-22T07:21:08.447Z,99.90
2019-05-22T07:23:37.048Z,99.90
2019-05-22T07:26:06.228Z,99.90
2019-05-22T07:28:38.127Z,99.90
2019-05-22T07:31:09.140Z,99.90
2019-05-22T07:33:38.394Z,99.90
2019-05-22T07:36:12.075Z,99.90
2019-05-22T07:38:38.699Z,99.90
2019-05-22T07:41:28.031Z,99.90
2019-05-22T07:43:56.568Z,99.90
2019-05-22T07:46:25.360Z,99.90
2019-05-22T07:48:55.081Z,99.90
2019-05-22T07:51:25.185Z,99.90
2019-05-22T07:53:54.361Z,99.90
2019-05-22T07:56:25.479Z,99.90
2019-05-22T07:58:58.930Z,99.90
2019-05-22T08:01:27.678Z,99.90
2019-05-22T08:03:58.402Z,99.90
2019-05-22T08:06:27.555Z,99.90
2019-05-22T08:08:56.987Z,99.90
2019-05-22T08:11:28.301Z,99.90
2019-05-22T08:13:58.578Z,99.90
2019-05-22T08:16:30.229Z,99.90
2019-05-22T08:18:58.633Z,99.90
2019-05-22T08:21:29.049Z,99.90
2019-05-22T08:23:58.480Z,99.90
2019-05-22T08:26:28.169Z,99.90
2019-05-22T08:28:58.450Z,99.90
2019-05-22T08:31:27.867Z,99.90
2019-05-22T08:33:58.515Z,99.90
2019-05-22T08:36:28.638Z,99.90
2019-05-22T08:38:59.442Z,99.90
2019-05-22T08:41:35.102Z,99.40
2019-05-22T08:44:16.372Z,95.20
2019-05-22T08:46:37.975Z,95.00
2019-05-22T08:49:08.085Z,97.60
2019-05-22T08:51:36.497Z,99.90
2019-05-22T08:54:07.922Z,99.90
2019-05-22T08:56:41.421Z,99.90
2019-05-22T08:59:19.573Z,99.20
2019-05-22T09:01:43.401Z,90.10
2019-05-22T09:04:13.748Z,81.20
2019-05-22T09:06:43.738Z,70.30
2019-05-22T09:09:12.224Z,70.00
2019-05-22T09:11:40.682Z,69.50
2019-05-22T09:14:09.152Z,63.00
2019-05-22T09:16:37.543Z,68.90
2019-05-22T09:19:07.982Z,68.10
2019-05-22T09:21:40.514Z,63.70
2019-05-22T09:24:13.074Z,59.50
2019-05-22T09:26:43.322Z,61.30
2019-05-22T09:29:11.863Z,57.20
2019-05-22T09:31:41.818Z,54.00
2019-05-22T09:34:10.453Z,53.60
2019-05-22T09:36:38.919Z,52.60
2019-05-22T09:39:09.375Z,50.70
2019-05-22T09:41:37.799Z,48.30
2019-05-22T09:44:07.109Z,47.50
2019-05-22T09:46:35.514Z,46.20
2019-05-22T09:49:04.105Z,47.80
2019-05-22T09:51:32.642Z,48.90
2019-05-22T09:54:03.736Z,49.70
2019-05-22T09:56:32.322Z,47.40
2019-05-22T09:59:00.742Z,46.10
2019-05-22T10:01:29.199Z,49.20
2019-05-22T10:04:00.213Z,46.70
2019-05-22T10:06:28.676Z,48.20
2019-05-22T10:08:57.139Z,48.90
2019-05-22T10:11:27.011Z,48.80
2019-05-22T10:13:55.538Z,48.10
2019-05-22T10:16:24.001Z,48.60
2019-05-22T10:19:13.132Z,48.50
2019-05-22T10:21:42.386Z,48.90
2019-05-22T10:24:12.421Z,47.90
2019-05-22T10:26:41.125Z,45.80
2019-05-22T10:29:09.630Z,45.20
2019-05-22T10:31:38.104Z,43.10
2019-05-22T10:34:06.494Z,44.00
2019-05-22T10:36:34.893Z,45.90
2019-05-22T10:39:05.742Z,46.10
2019-05-22T10:41:34.785Z,47.60
2019-05-22T10:44:05.901Z,45.60
2019-05-22T10:46:35.932Z,48.30
2019-05-22T10:49:06.169Z,46.40
2019-05-22T10:51:34.633Z,46.30
2019-05-22T10:54:04.942Z,45.40
2019-05-22T10:56:34.185Z,47.60
2019-05-22T10:59:02.944Z,46.70
2019-05-22T11:01:32.308Z,47.60
2019-05-22T11:04:03.242Z,46.40
2019-05-22T11:06:31.781Z,45.30
2019-05-22T11:09:00.514Z,43.30
2019-05-22T11:11:30.765Z,44.20
2019-05-22T11:14:02.003Z,43.30
2019-05-22T11:16:32.233Z,45.20
2019-05-22T11:19:03.911Z,42.60
2019-05-22T11:21:34.449Z,43.30
2019-05-22T11:24:03.786Z,45.00
2019-05-22T11:26:32.971Z,45.20
2019-05-22T11:29:04.806Z,47.90
2019-05-22T11:31:33.355Z,48.30
2019-05-22T11:34:01.840Z,47.70
2019-05-22T11:36:32.445Z,45.10
2019-05-22T11:39:00.971Z,44.50
2019-05-22T11:41:30.316Z,43.70
2019-05-22T11:43:58.773Z,41.40
2019-05-22T11:46:27.239Z,40.80
2019-05-22T11:48:55.778Z,40.30
2019-05-22T11:51:24.178Z,42.70
2019-05-22T11:54:08.173Z,39.90
2019-05-22T11:56:22.967Z,41.90
2019-05-22T11:58:51.399Z,41.00
2019-05-22T12:01:19.972Z,40.30
2019-05-22T12:03:49.895Z,41.40
2019-05-22T12:06:18.433Z,40.00
2019-05-22T12:08:49.607Z,38.50
2019-05-22T12:11:20.293Z,37.20
2019-05-22T12:13:48.822Z,37.40
2019-05-22T12:16:18.955Z,37.00
2019-05-22T12:18:48.784Z,37.60
2019-05-22T12:21:17.190Z,39.40
2019-05-22T12:23:46.632Z,38.00
2019-05-22T12:26:15.099Z,38.90
2019-05-22T12:28:44.436Z,38.30
2019-05-22T12:31:14.512Z,39.10
2019-05-22T12:33:44.045Z,39.40
2019-05-22T12:36:15.413Z,38.60
2019-05-22T12:38:45.539Z,38.00
2019-05-22T12:41:18.722Z,39.60
2019-05-22T12:43:47.997Z,39.20
2019-05-22T12:46:19.631Z,39.20
2019-05-22T12:48:48.081Z,37.10
2019-05-22T12:51:16.822Z,36.40
2019-05-22T12:53:48.278Z,35.90
2019-05-22T12:56:19.049Z,37.00
2019-05-22T12:58:50.296Z,37.10
2019-05-22T13:01:21.203Z,37.20
2019-05-22T13:03:51.345Z,39.10
2019-05-22T13:06:22.445Z,40.50
2019-05-22T13:08:53.209Z,44.90
2019-05-22T13:11:23.637Z,46.90
2019-05-22T13:13:52.072Z,46.40
2019-05-22T13:16:23.198Z,46.80
2019-05-22T13:18:53.586Z,49.50
2019-05-22T13:21:25.489Z,52.00
2019-05-22T13:23:54.424Z,51.10
2019-05-22T13:26:25.588Z,52.90
2019-05-22T13:28:57.085Z,53.40
2019-05-22T13:31:27.729Z,53.90
2019-05-22T13:33:59.262Z,54.20
2019-05-22T13:36:28.634Z,52.60
2019-05-22T13:38:57.113Z,50.40
2019-05-22T13:41:26.654Z,48.30
2019-05-22T13:43:55.524Z,45.70
2019-05-22T13:46:23.991Z,44.30
2019-05-22T13:48:52.468Z,43.40
2019-05-22T13:51:21.782Z,43.30
2019-05-22T13:53:52.810Z,41.50
2019-05-22T13:56:25.346Z,42.30
2019-05-22T13:58:52.701Z,44.50
2019-05-22T14:01:21.580Z,43.70
2019-05-22T14:03:51.686Z,45.50
2019-05-22T14:06:20.842Z,48.50
2019-05-22T14:08:49.385Z,48.60
2019-05-22T14:11:20.425Z,51.10
2019-05-22T14:13:50.658Z,53.00
2019-05-22T14:16:21.361Z,54.50
2019-05-22T14:18:50.717Z,56.90
2019-05-22T14:21:20.277Z,56.40
2019-05-22T14:23:48.748Z,56.20
2019-05-22T14:26:17.286Z,58.30
2019-05-22T14:28:47.562Z,59.80
2019-05-22T14:31:15.957Z,61.10
2019-05-22T14:33:44.424Z,63.40
2019-05-22T14:36:12.825Z,62.80
2019-05-22T14:38:41.435Z,63.80
2019-05-22T14:41:10.897Z,65.50
2019-05-22T14:43:39.294Z,66.50
2019-05-22T14:46:07.858Z,64.30
2019-05-22T14:48:37.729Z,64.10
2019-05-22T14:51:07.285Z,66.20
2019-05-22T14:53:37.517Z,58.10
2019-05-22T14:56:10.952Z,56.00
2019-05-22T14:58:41.873Z,53.00
2019-05-22T15:01:11.423Z,51.00
2019-05-22T15:03:39.883Z,50.20
2019-05-22T15:06:09.538Z,48.90
2019-05-22T15:08:37.973Z,46.10
2019-05-22T15:11:06.376Z,43.60
2019-05-22T15:13:34.849Z,43.70
2019-05-22T15:16:03.313Z,43.30
2019-05-22T15:18:31.931Z,43.20
2019-05-22T15:21:01.973Z,43.20
2019-05-22T15:23:33.367Z,41.60
2019-05-22T15:26:02.597Z,42.50
2019-05-22T15:28:33.088Z,44.80
2019-05-22T15:31:02.913Z,47.00
2019-05-22T15:33:34.716Z,48.60
2019-05-22T15:36:06.805Z,51.40
2019-05-22T15:38:40.375Z,53.40
2019-05-22T15:41:11.375Z,55.40
2019-05-22T15:43:43.042Z,56.90
2019-05-22T15:46:15.917Z,56.20
2019-05-22T15:48:47.421Z,57.80
2019-05-22T15:51:21.237Z,56.60
2019-05-22T15:53:51.557Z,55.40
2019-05-22T15:56:20.096Z,55.10
2019-05-22T15:58:53.368Z,51.40
2019-05-22T16:01:25.262Z,52.10
2019-05-22T16:03:56.090Z,51.80
2019-05-22T16:06:27.062Z,50.40
2019-05-22T16:08:55.605Z,49.30
2019-05-22T16:11:27.488Z,48.30
2019-05-22T16:14:00.975Z,51.00
2019-05-22T16:16:31.514Z,48.30
2019-05-22T16:19:03.053Z,47.50
2019-05-22T16:21:34.632Z,49.40
2019-05-22T16:24:05.657Z,49.60
2019-05-22T16:26:35.746Z,52.50
2019-05-22T16:29:06.881Z,52.80
2019-05-22T16:31:39.556Z,51.20
2019-05-22T16:34:08.693Z,51.70
2019-05-22T16:36:37.241Z,53.20
2019-05-22T16:39:08.632Z,51.60
2019-05-22T16:41:40.132Z,52.70
2019-05-22T16:44:11.200Z,53.70
2019-05-22T16:46:42.654Z,54.80
2019-05-22T16:49:13.433Z,55.20
2019-05-22T16:51:44.978Z,58.50
2019-05-22T16:54:14.909Z,59.00
2019-05-22T16:56:44.981Z,59.20
2019-05-22T16:59:15.023Z,59.40
2019-05-22T17:01:58.591Z,59.10
2019-05-22T17:04:17.303Z,62.20
2019-05-22T17:06:48.250Z,61.60
2019-05-22T17:09:19.243Z,63.10
2019-05-22T17:11:48.586Z,63.00
2019-05-22T17:14:22.158Z,63.60
2019-05-22T17:16:51.594Z,64.20
2019-05-22T17:19:27.153Z,66.50
2019-05-22T17:21:51.130Z,67.90
2019-05-22T17:24:21.663Z,68.40
2019-05-22T17:26:53.089Z,67.60
2019-05-22T17:29:24.185Z,65.60
2019-05-22T17:31:54.548Z,65.60
2019-05-22T17:34:37.378Z,69.40
2019-05-22T17:37:13.618Z,70.70
2019-05-22T17:39:44.708Z,71.80
2019-05-22T17:42:19.204Z,71.30
2019-05-22T17:44:51.566Z,72.00
2019-05-22T17:47:23.657Z,71.80
2019-05-22T17:49:54.371Z,74.60
2019-05-22T17:52:24.261Z,76.30
2019-05-22T17:54:53.428Z,77.60
2019-05-22T17:57:24.040Z,79.40
2019-05-22T17:59:54.194Z,80.20
2019-05-22T18:02:25.097Z,83.00
2019-05-22T18:04:54.442Z,85.70
2019-05-22T18:07:23.116Z,85.60
2019-05-22T18:09:51.630Z,89.40
2019-05-22T18:12:21.871Z,91.20
2019-05-22T18:14:51.901Z,90.80
2019-05-22T18:17:20.421Z,92.10
2019-05-22T18:19:48.813Z,93.80
2019-05-22T18:22:17.205Z,96.70
2019-05-22T18:24:47.124Z,97.80
2019-05-22T18:27:15.606Z,99.20
2019-05-22T18:29:44.135Z,99.90
2019-05-22T18:32:14.238Z,99.90
2019-05-22T18:34:42.635Z,99.90
2019-05-22T18:37:11.061Z,99.90
2019-05-22T18:39:39.725Z,99.90
2019-05-22T18:42:08.333Z,99.90
2019-05-22T18:44:37.566Z,99.90
2019-05-22T18:47:13.425Z,99.90
2019-05-22T18:49:41.821Z,99.90
2019-05-22T18:52:12.659Z,99.90
2019-05-22T18:54:41.133Z,99.90
2019-05-22T18:57:09.988Z,99.90
2019-05-22T18:59:38.467Z,99.90
2019-05-22T19:02:09.358Z,99.90
2019-05-22T19:04:37.998Z,99.90
2019-05-22T19:07:13.422Z,99.90
2019-05-22T19:09:42.683Z,99.90
2019-05-22T19:12:11.221Z,99.90
2019-05-22T19:14:39.833Z,99.90
2019-05-22T19:17:10.077Z,99.90
2019-05-22T19:19:40.154Z,99.90
2019-05-22T19:22:08.565Z,99.90
2019-05-22T19:24:37.063Z,99.90
2019-05-22T19:27:05.595Z,99.90
2019-05-22T19:29:33.985Z,99.90
2019-05-22T19:32:02.525Z,99.90
2019-05-22T19:34:31.073Z,99.90
2019-05-22T19:36:59.465Z,99.90
2019-05-22T19:39:29.445Z,99.90
2019-05-22T19:42:03.543Z,99.90
2019-05-22T19:44:28.033Z,99.90
2019-05-22T19:46:56.647Z,99.90
2019-05-22T19:49:25.433Z,99.90
2019-05-22T19:51:56.433Z,99.90
2019-05-22T19:54:24.910Z,99.90
2019-05-22T19:56:53.357Z,99.90
2019-05-22T19:59:23.541Z,99.90
2019-05-22T20:01:52.286Z,99.90
2019-05-22T20:04:21.898Z,99.90
2019-05-22T20:06:50.317Z,99.90
2019-05-22T20:09:20.344Z,99.90
2019-05-22T20:11:48.806Z,99.90
2019-05-22T20:14:19.114Z,99.90
2019-05-22T20:16:48.290Z,99.90
2019-05-22T20:19:17.726Z,99.90
2019-05-22T20:21:48.701Z,99.90
2019-05-22T20:24:17.275Z,99.90
2019-05-22T20:26:45.726Z,99.90
2019-05-22T20:29:15.360Z,99.90
2019-05-22T20:31:45.333Z,99.90
2019-05-22T20:34:15.427Z,99.90
2019-05-22T20:36:44.793Z,99.90
2019-05-22T20:39:14.901Z,99.90
2019-05-22T20:41:43.365Z,99.90
2019-05-22T20:44:11.947Z,99.90
2019-05-22T20:46:42.197Z,99.90
2019-05-22T20:49:13.210Z,99.90
2019-05-22T20:51:41.749Z,99.90
2019-05-22T20:54:12.842Z,99.90
2019-05-22T20:56:44.437Z,99.90
2019-05-22T20:59:12.821Z,99.90
2019-05-22T21:01:41.311Z,99.90
2019-05-22T21:04:14.441Z,99.90
2019-05-22T21:06:51.761Z,99.90
2019-05-22T21:09:22.070Z,99.90
2019-05-22T21:11:50.469Z,99.90
2019-05-22T21:14:21.617Z,99.90
2019-05-22T21:16:50.106Z,99.90
2019-05-22T21:19:18.625Z,99.90
2019-05-22T21:21:48.181Z,99.90
2019-05-22T21:24:18.217Z,99.90
2019-05-22T21:26:46.689Z,99.90
2019-05-22T21:29:15.255Z,99.90
2019-05-22T21:31:47.742Z,99.90
2019-05-22T21:34:17.373Z,99.90
2019-05-22T21:36:45.778Z,99.90
2019-05-22T21:39:16.706Z,99.90
2019-05-22T21:41:45.117Z,99.90
2019-05-22T21:44:13.541Z,99.90
2019-05-22T21:46:43.743Z,99.90
2019-05-22T21:49:14.736Z,99.90
2019-05-22T21:51:43.182Z,99.90
2019-05-22T21:54:13.045Z,99.90
2019-05-22T21:56:43.332Z,99.90
2019-05-22T21:59:11.805Z,99.90
2019-05-22T22:01:55.029Z,99.90
2019-05-22T22:04:29.558Z,99.90
2019-05-22T22:06:59.668Z,99.90
2019-05-22T22:09:29.803Z,99.90
2019-05-22T22:11:59.848Z,99.90
2019-05-22T22:14:28.401Z,99.90
2019-05-22T22:16:56.824Z,99.90
2019-05-22T22:19:26.257Z,99.90
2019-05-22T22:21:57.127Z,99.90
2019-05-22T22:24:27.815Z,99.90
2019-05-22T22:26:58.853Z,99.90
2019-05-22T22:29:27.385Z,99.90
2019-05-22T22:31:58.200Z,99.90
2019-05-22T22:34:29.747Z,99.90
2019-05-22T22:36:59.783Z,99.90
2019-05-22T22:39:30.858Z,99.90
2019-05-22T22:42:00.940Z,99.90
2019-05-22T22:44:29.313Z,99.90
2019-05-22T22:47:03.093Z,99.90
2019-05-22T22:49:32.544Z,99.90
2019-05-22T22:52:01.016Z,99.90
2019-05-22T22:54:31.915Z,99.90
2019-05-22T22:57:00.691Z,99.90
2019-05-22T22:59:29.457Z,99.90
2019-05-22T23:02:01.816Z,99.90
2019-05-22T23:04:33.125Z,99.90
2019-05-22T23:07:05.666Z,99.90
2019-05-22T23:09:37.079Z,99.90
2019-05-22T23:12:07.189Z,99.90
2019-05-22T23:14:40.241Z,99.90
2019-05-22T23:17:11.845Z,99.90
2019-05-22T23:19:40.817Z,99.90
2019-05-22T23:22:09.780Z,99.90
2019-05-22T23:24:40.962Z,99.90
2019-05-22T23:27:13.254Z,99.90
2019-05-22T23:29:44.817Z,99.90
2019-05-22T23:32:16.021Z,99.90
2019-05-22T23:34:47.063Z,99.90
2019-05-22T23:37:18.742Z,99.90
2019-05-22T23:39:50.418Z,99.90
2019-05-22T23:42:23.866Z,99.90
2019-05-22T23:44:57.253Z,99.90
2019-05-22T23:47:27.258Z,99.90
2019-05-22T23:49:57.533Z,99.90
2019-05-22T23:52:27.662Z,99.90
2019-05-22T23:54:57.305Z,99.90
2019-05-22T23:57:27.336Z,99.90
2019-05-22T23:59:58.034Z,99.90
